createdAt,value
2019-05-29T00:05:01.814Z,13.33
2019-05-29T00:10:08.823Z,13.23
2019-05-29T00:15:14.606Z,13.17
2019-05-29T00:20:20.503Z,13.10
2019-05-29T00:25:26.184Z,13.04
2019-05-29T00:30:31.657Z,12.98
2019-05-29T00:35:37.166Z,12.91
2019-05-29T00:40:42.639Z,12.85
2019-05-29T00:45:48.107Z,12.80
2019-05-29T00:50:53.586Z,12.75
2019-05-29T00:55:59.065Z,12.69
2019-05-29T01:01:04.482Z,12.63
2019-05-29T01:06:09.952Z,12.56
2019-05-29T01:11:15.439Z,12.50
2019-05-29T01:16:21.743Z,12.44
2019-05-29T01:21:27.343Z,12.38
2019-05-29T01:26:32.841Z,12.32
2019-05-29T01:31:38.301Z,12.27
2019-05-29T01:36:43.815Z,12.21
2019-05-29T01:41:49.366Z,12.15
2019-05-29T01:46:54.812Z,12.09
2019-05-29T01:52:00.454Z,12.02
2019-05-29T01:57:05.984Z,11.96
2019-05-29T02:02:11.625Z,11.91
2019-05-29T02:07:17.930Z,11.85
2019-05-29T02:12:24.429Z,11.81
2019-05-29T02:17:30.219Z,11.76
2019-05-29T02:22:35.730Z,11.70
2019-05-29T02:27:41.158Z,11.63
2019-05-29T02:32:46.681Z,11.57
2019-05-29T02:37:52.246Z,11.53
2019-05-29T02:42:57.671Z,11.48
2019-05-29T02:48:03.129Z,11.43
2019-05-29T02:53:08.547Z,11.35
2019-05-29T02:58:14.015Z,11.29
2019-05-29T03:03:21.473Z,11.24
2019-05-29T03:08:29.372Z,11.19
2019-05-29T03:13:34.274Z,11.13
2019-05-29T03:18:39.723Z,11.09
2019-05-29T03:23:45.177Z,11.03
2019-05-29T03:28:50.598Z,11.00
2019-05-29T03:33:56.011Z,10.98
2019-05-29T03:39:01.535Z,10.98
2019-05-29T03:44:10.271Z,10.98
2019-05-29T03:49:14.239Z,10.99
2019-05-29T03:54:19.665Z,11.00
2019-05-29T03:59:26.741Z,11.06
2019-05-29T04:04:33.510Z,11.11
2019-05-29T04:09:39.614Z,11.16
2019-05-29T04:14:45.109Z,11.24
2019-05-29T04:19:50.503Z,11.33
2019-05-29T04:24:56.035Z,11.46
2019-05-29T04:30:01.858Z,11.58
2019-05-29T04:35:07.550Z,11.71
2019-05-29T04:40:13.004Z,11.87
2019-05-29T04:45:18.871Z,12.05
2019-05-29T04:50:24.396Z,12.25
2019-05-29T04:55:30.694Z,12.49
2019-05-29T05:00:37.275Z,12.74
2019-05-29T05:05:42.789Z,13.04
2019-05-29T05:10:48.218Z,13.64
2019-05-29T05:15:55.375Z,15.86
2019-05-29T05:21:00.816Z,18.79
2019-05-29T05:26:06.742Z,21.49
2019-05-29T05:31:12.182Z,24.04
2019-05-29T05:36:17.737Z,26.13
2019-05-29T05:41:23.200Z,28.01
2019-05-29T05:46:28.978Z,29.52
2019-05-29T05:51:38.255Z,30.57
2019-05-29T05:56:42.168Z,31.53
2019-05-29T06:01:47.951Z,32.17
2019-05-29T06:06:53.720Z,32.89
2019-05-29T06:11:59.617Z,33.75
2019-05-29T06:17:05.334Z,34.50
2019-05-29T06:22:11.043Z,35.71
2019-05-29T06:27:16.813Z,37.04
2019-05-29T06:32:22.747Z,37.56
2019-05-29T06:37:28.494Z,38.38
2019-05-29T06:42:35.603Z,39.18
2019-05-29T06:47:42.758Z,39.49
2019-05-29T06:52:48.632Z,39.73
2019-05-29T06:57:54.402Z,39.85
2019-05-29T07:03:00.153Z,40.98
2019-05-29T07:08:18.725Z,42.07
2019-05-29T07:13:13.500Z,43.33
2019-05-29T07:18:19.198Z,44.05
2019-05-29T07:23:24.972Z,44.88
2019-05-29T07:28:30.722Z,46.28
2019-05-29T07:33:36.971Z,47.26
2019-05-29T07:38:45.986Z,47.74
2019-05-29T07:43:50.197Z,48.81
2019-05-29T07:48:55.988Z,49.08
2019-05-29T07:54:01.830Z,49.88
2019-05-29T07:59:07.559Z,50.93
2019-05-29T08:04:13.320Z,51.96
2019-05-29T08:09:19.024Z,52.88
2019-05-29T08:14:24.725Z,53.75
2019-05-29T08:19:31.690Z,54.34
2019-05-29T08:24:37.404Z,55.06
2019-05-29T08:29:43.217Z,55.29
2019-05-29T08:34:49.136Z,55.84
2019-05-29T08:39:55.188Z,56.12
2019-05-29T08:45:00.887Z,55.77
2019-05-29T08:50:18.344Z,55.93
2019-05-29T08:55:14.281Z,54.37
2019-05-29T09:00:19.974Z,53.98
2019-05-29T09:05:25.716Z,55.21
2019-05-29T09:10:31.481Z,56.04
2019-05-29T09:15:37.251Z,55.74
2019-05-29T09:21:01.752Z,54.69
2019-05-29T09:25:50.561Z,54.58
2019-05-29T09:30:56.233Z,54.34
2019-05-29T09:36:02.029Z,54.04
2019-05-29T09:41:07.796Z,53.65
2019-05-29T09:46:13.529Z,51.89
2019-05-29T09:51:21.629Z,48.09
2019-05-29T09:56:26.766Z,42.96
2019-05-29T10:01:32.565Z,38.79
2019-05-29T10:06:38.321Z,35.49
2019-05-29T10:11:44.042Z,31.41
2019-05-29T10:16:49.952Z,28.63
2019-05-29T10:21:56.833Z,26.56
2019-05-29T10:27:03.566Z,25.06
2019-05-29T10:32:09.846Z,23.82
2019-05-29T10:37:18.061Z,22.94
2019-05-29T10:42:22.686Z,22.49
2019-05-29T10:47:28.204Z,22.27
2019-05-29T10:52:33.738Z,22.18
2019-05-29T10:57:39.293Z,22.08
2019-05-29T11:02:46.114Z,22.07
2019-05-29T11:07:52.393Z,22.10
2019-05-29T11:12:57.945Z,21.98
2019-05-29T11:18:03.468Z,21.76
2019-05-29T11:23:09.286Z,21.77
2019-05-29T11:28:14.956Z,21.79
2019-05-29T11:33:20.420Z,21.93
2019-05-29T11:38:25.986Z,22.08
2019-05-29T11:43:31.835Z,22.19
2019-05-29T11:48:37.416Z,22.28
2019-05-29T11:53:43.001Z,22.43
2019-05-29T11:58:48.512Z,22.53
2019-05-29T12:04:24.196Z,22.52
2019-05-29T12:09:01.882Z,22.54
2019-05-29T12:14:07.412Z,22.64
2019-05-29T12:19:12.893Z,22.75
2019-05-29T12:24:18.303Z,22.82
2019-05-29T12:29:23.768Z,22.78
2019-05-29T12:34:29.189Z,22.80
2019-05-29T12:39:34.786Z,22.88
2019-05-29T12:44:40.442Z,22.85
2019-05-29T12:49:45.857Z,22.83
2019-05-29T12:54:51.302Z,22.87
2019-05-29T12:59:58.001Z,23.03
2019-05-29T13:05:08.422Z,23.17
2019-05-29T13:10:27.018Z,23.10
2019-05-29T13:15:18.522Z,23.03
2019-05-29T13:20:24.060Z,23.10
2019-05-29T13:25:29.490Z,23.19
2019-05-29T13:30:34.942Z,23.24
2019-05-29T13:35:40.649Z,23.23
2019-05-29T13:40:46.188Z,23.42
2019-05-29T13:45:52.021Z,23.71
2019-05-29T13:50:59.398Z,23.92
2019-05-29T13:56:06.104Z,24.04
2019-05-29T14:01:11.839Z,24.02
2019-05-29T14:06:17.261Z,23.94
2019-05-29T14:11:22.773Z,24.00
2019-05-29T14:16:28.336Z,24.07
2019-05-29T14:21:33.910Z,23.95
2019-05-29T14:26:39.419Z,23.79
2019-05-29T14:31:44.886Z,23.79
2019-05-29T14:36:50.404Z,23.80
2019-05-29T14:41:55.899Z,23.81
2019-05-29T14:47:01.883Z,23.90
2019-05-29T14:52:08.696Z,24.08
2019-05-29T14:57:25.551Z,24.20
2019-05-29T15:02:23.826Z,24.28
2019-05-29T15:07:28.858Z,24.29
2019-05-29T15:12:34.411Z,24.31
2019-05-29T15:17:39.935Z,24.38
2019-05-29T15:22:45.480Z,24.42
2019-05-29T15:27:51.108Z,24.43
2019-05-29T15:32:56.684Z,24.41
2019-05-29T15:38:02.368Z,24.43
2019-05-29T15:43:08.799Z,24.39
2019-05-29T15:48:15.255Z,24.26
2019-05-29T15:53:20.792Z,24.23
2019-05-29T15:58:26.300Z,24.17
2019-05-29T16:03:31.838Z,24.14
2019-05-29T16:08:37.357Z,24.13
2019-05-29T16:13:42.784Z,24.15
2019-05-29T16:18:48.253Z,24.15
2019-05-29T16:23:53.685Z,24.13
2019-05-29T16:28:59.250Z,24.09
2019-05-29T16:34:04.918Z,24.11
2019-05-29T16:39:11.389Z,24.13
2019-05-29T16:44:18.142Z,24.10
2019-05-29T16:49:23.711Z,24.04
2019-05-29T16:54:29.129Z,23.97
2019-05-29T16:59:34.617Z,23.85
2019-05-29T17:04:40.073Z,23.71
2019-05-29T17:09:45.723Z,23.57
2019-05-29T17:14:51.125Z,23.42
2019-05-29T17:19:56.605Z,23.31
2019-05-29T17:25:02.053Z,23.20
2019-05-29T17:30:07.765Z,23.06
2019-05-29T17:35:14.646Z,22.94
2019-05-29T17:40:21.426Z,22.81
2019-05-29T17:45:27.423Z,22.67
2019-05-29T17:50:33.189Z,22.57
2019-05-29T17:55:38.688Z,22.46
2019-05-29T18:00:44.125Z,22.35
2019-05-29T18:05:49.615Z,22.25
2019-05-29T18:10:55.135Z,22.12
2019-05-29T18:16:00.601Z,21.99
2019-05-29T18:21:06.217Z,21.89
2019-05-29T18:26:11.703Z,21.81
2019-05-29T18:31:18.377Z,21.67
2019-05-29T18:36:25.247Z,21.52
2019-05-29T18:41:30.906Z,21.38
2019-05-29T18:46:38.197Z,21.26
2019-05-29T18:51:43.615Z,21.07
2019-05-29T18:57:13.681Z,20.86
2019-05-29T19:01:56.274Z,20.64
2019-05-29T19:07:01.721Z,20.41
2019-05-29T19:12:07.250Z,20.19
2019-05-29T19:17:12.900Z,19.99
2019-05-29T19:22:18.419Z,19.86
2019-05-29T19:27:35.066Z,19.80
2019-05-29T19:32:32.300Z,19.80
2019-05-29T19:37:38.435Z,19.83
2019-05-29T19:42:44.030Z,19.90
2019-05-29T19:47:49.486Z,19.97
2019-05-29T19:52:54.968Z,20.01
2019-05-29T19:58:00.571Z,20.01
2019-05-29T20:03:06.067Z,20.00
2019-05-29T20:08:11.494Z,19.96
2019-05-29T20:13:16.915Z,19.94
2019-05-29T20:18:22.317Z,19.89
2019-05-29T20:23:28.598Z,19.87
2019-05-29T20:28:34.316Z,19.82
2019-05-29T20:33:39.757Z,19.78
2019-05-29T20:38:45.319Z,19.76
2019-05-29T20:43:50.926Z,19.79
2019-05-29T20:48:56.406Z,19.79
2019-05-29T20:54:01.841Z,19.77
2019-05-29T20:59:07.297Z,19.73
2019-05-29T21:04:12.730Z,19.65
2019-05-29T21:09:18.231Z,19.63
2019-05-29T21:14:23.636Z,19.56
2019-05-29T21:19:29.091Z,19.49
2019-05-29T21:24:34.691Z,19.38
2019-05-29T21:29:41.227Z,19.18
2019-05-29T21:34:46.869Z,18.95
2019-05-29T21:39:52.349Z,18.73
2019-05-29T21:44:57.797Z,18.51
2019-05-29T21:50:03.376Z,18.30
2019-05-29T21:55:08.948Z,18.08
2019-05-29T22:00:17.135Z,17.87
2019-05-29T22:05:22.557Z,17.68
2019-05-29T22:10:28.183Z,17.52
2019-05-29T22:15:33.717Z,17.37
2019-05-29T22:20:39.109Z,17.21
2019-05-29T22:25:44.626Z,17.08
2019-05-29T22:30:51.282Z,16.99
2019-05-29T22:35:57.513Z,16.90
2019-05-29T22:41:02.993Z,16.81
2019-05-29T22:46:08.575Z,16.72
2019-05-29T22:51:14.055Z,16.64
2019-05-29T22:56:19.605Z,16.59
2019-05-29T23:01:25.115Z,16.57
2019-05-29T23:06:30.525Z,16.52
2019-05-29T23:11:36.104Z,16.50
2019-05-29T23:16:41.544Z,16.46
2019-05-29T23:21:46.974Z,16.44
2019-05-29T23:26:52.903Z,16.39
2019-05-29T23:31:58.901Z,16.34
2019-05-29T23:37:04.579Z,16.28
2019-05-29T23:42:10.099Z,16.24
2019-05-29T23:47:15.559Z,16.20
2019-05-29T23:52:20.962Z,16.15
2019-05-29T23:57:26.358Z,16.12
